메인 페이지
METAR-TAF:

METAR-TAF

공항 :

제너럴산토스, 필리핀

위도: 06-03-29N, 경도: 125-05-46E, 고도: 154m

현재 날씨관측

예보는 6 시간 23분 전, 09:00시(UTC)에 발표되었습니다.
남남동12kt
온도 30°C
습도 75%
기압 1007 hPa
시정 10km 이상
고도 1800ft 상공 구름 조금, 적란운.
고도 8000ft 상공 구름 보통

METAR: RPMR 250900Z 15012KT 9999 FEW018CB SCT080 30/25 Q1007 RMK A2974 CB W NW

시각: 23:23 (15:23 UTC)

예보

예보는 4 시간 23분 전, 11:00시(UTC)에 발표되었습니다.
예보 대상 시간: 25일 12시부터 26일 12시까지 (UTC)
6kt
시정 10km 이상
고도 1800ft 상공 구름 조금
고도 8000ft 상공 구름 보통
일시적
25일 12시부터 25일 16시까지 (UTC)
북북서5kt
고도 1800ft 상공 구름 보통
고도 8000ft 상공 구름 많음

TAF: RPMR 251100Z 2512/2612 18006KT 9999 FEW018 SCT080 TEMPO 2512/2516 34005KT SCT018 BKN080

4,000개 이상의 공항 관측 자료 및 예보 (METAR 및 TAF 보고).

지도상에서 검색 가능한 기상관측소가 노란 점과 빨간 점으로 표시되어 있습니다.

기상관측소 명을 보려면 표시 위로 마우스를 이동하세요.

날씨 관측과 예보를 보려면 클릭하세요.

지도 변경 : 확대하려면 엑스 표시가 있는 녹색 버튼, 축소하려면 빼기 표시가 있는 녹색 버튼, 다음 페이지의 지도를 보려면 녹색 화살표를 클릭하세요.


METAR-TAF: